sensor_id;sensor_type;location;lat;lon;timestamp;temperature;humidity
38854;DHT22;24606;51.992;4.198;2022-10-16T00:00:41;18.10;91.50
38854;DHT22;24606;51.992;4.198;2022-10-16T00:05:44;18.60;90.40
38854;DHT22;24606;51.992;4.198;2022-10-16T00:10:47;17.90;90.70
38854;DHT22;24606;51.992;4.198;2022-10-16T00:15:49;17.30;92.40
38854;DHT22;24606;51.992;4.198;2022-10-16T00:20:51;17.50;94.00
38854;DHT22;24606;51.992;4.198;2022-10-16T00:25:59;18.40;89.30
38854;DHT22;24606;51.992;4.198;2022-10-16T00:31:03;16.70;93.80
38854;DHT22;24606;51.992;4.198;2022-10-16T00:36:07;16.70;92.20
38854;DHT22;24606;51.992;4.198;2022-10-16T00:41:15;17.90;91.20
38854;DHT22;24606;51.992;4.198;2022-10-16T00:46:20;17.90;90.80
38854;DHT22;24606;51.992;4.198;2022-10-16T00:51:25;17.20;92.60
38854;DHT22;24606;51.992;4.198;2022-10-16T00:56:31;17.30;94.10
38854;DHT22;24606;51.992;4.198;2022-10-16T01:01:34;18.00;90.60
38854;DHT22;24606;51.992;4.198;2022-10-16T01:06:40;17.40;91.70
38854;DHT22;24606;51.992;4.198;2022-10-16T01:11:52;18.10;90.90
38854;DHT22;24606;51.992;4.198;2022-10-16T01:16:57;17.80;92.60
38854;DHT22;24606;51.992;4.198;2022-10-16T01:22:01;17.80;91.90
38854;DHT22;24606;51.992;4.198;2022-10-16T01:27:13;17.80;92.20
38854;DHT22;24606;51.992;4.198;2022-10-16T01:32:19;17.60;92.20
38854;DHT22;24606;51.992;4.198;2022-10-16T01:37:32;17.60;92.30
38854;DHT22;24606;51.992;4.198;2022-10-16T01:42:38;17.00;91.50
38854;DHT22;24606;51.992;4.198;2022-10-16T01:47:43;17.30;93.50
38854;DHT22;24606;51.992;4.198;2022-10-16T01:52:48;18.00;91.70
38854;DHT22;24606;51.992;4.198;2022-10-16T01:57:53;18.50;90.90
38854;DHT22;24606;51.992;4.198;2022-10-16T02:02:57;18.80;90.30
38854;DHT22;24606;51.992;4.198;2022-10-16T02:08:02;19.10;87.60
38854;DHT22;24606;51.992;4.198;2022-10-16T02:13:08;19.00;89.30
38854;DHT22;24606;51.992;4.198;2022-10-16T02:18:11;19.20;87.50
38854;DHT22;24606;51.992;4.198;2022-10-16T02:23:20;19.10;88.60
38854;DHT22;24606;51.992;4.198;2022-10-16T02:28:28;19.00;88.60
38854;DHT22;24606;51.992;4.198;2022-10-16T02:33:35;19.10;88.50
38854;DHT22;24606;51.992;4.198;2022-10-16T02:38:39;19.30;87.50
38854;DHT22;24606;51.992;4.198;2022-10-16T02:43:42;19.70;85.30
38854;DHT22;24606;51.992;4.198;2022-10-16T02:48:44;19.00;90.80
38854;DHT22;24606;51.992;4.198;2022-10-16T02:53:46;18.70;87.60
38854;DHT22;24606;51.992;4.198;2022-10-16T02:58:49;18.10;91.20
38854;DHT22;24606;51.992;4.198;2022-10-16T03:03:51;18.30;91.00
38854;DHT22;24606;51.992;4.198;2022-10-16T03:08:53;17.50;93.10
38854;DHT22;24606;51.992;4.198;2022-10-16T03:13:56;17.20;94.00
38854;DHT22;24606;51.992;4.198;2022-10-16T03:18:58;16.90;94.30
38854;DHT22;24606;51.992;4.198;2022-10-16T03:24:00;16.60;94.20
38854;DHT22;24606;51.992;4.198;2022-10-16T03:29:03;17.30;93.40
38854;DHT22;24606;51.992;4.198;2022-10-16T03:34:05;17.30;92.70
38854;DHT22;24606;51.992;4.198;2022-10-16T03:39:07;16.60;94.70
38854;DHT22;24606;51.992;4.198;2022-10-16T03:44:10;17.00;93.00
38854;DHT22;24606;51.992;4.198;2022-10-16T03:49:12;17.30;93.00
38854;DHT22;24606;51.992;4.198;2022-10-16T03:54:14;18.10;91.20
38854;DHT22;24606;51.992;4.198;2022-10-16T03:59:17;18.00;91.80
38854;DHT22;24606;51.992;4.198;2022-10-16T04:04:19;17.80;92.10
38854;DHT22;24606;51.992;4.198;2022-10-16T04:09:21;18.70;90.20
38854;DHT22;24606;51.992;4.198;2022-10-16T04:14:24;19.20;86.60
38854;DHT22;24606;51.992;4.198;2022-10-16T04:19:26;18.20;89.80
38854;DHT22;24606;51.992;4.198;2022-10-16T04:24:28;18.40;90.80
38854;DHT22;24606;51.992;4.198;2022-10-16T04:29:31;18.20;91.20
38854;DHT22;24606;51.992;4.198;2022-10-16T04:34:33;18.10;91.70
38854;DHT22;24606;51.992;4.198;2022-10-16T04:39:35;17.40;92.30
38854;DHT22;24606;51.992;4.198;2022-10-16T04:44:38;17.00;93.30
38854;DHT22;24606;51.992;4.198;2022-10-16T04:49:40;17.10;94.30
38854;DHT22;24606;51.992;4.198;2022-10-16T04:54:42;17.20;93.80
38854;DHT22;24606;51.992;4.198;2022-10-16T04:59:47;16.70;95.70
38854;DHT22;24606;51.992;4.198;2022-10-16T05:04:49;16.90;94.70
38854;DHT22;24606;51.992;4.198;2022-10-16T05:09:50;17.40;93.30
38854;DHT22;24606;51.992;4.198;2022-10-16T05:14:54;17.40;93.20
38854;DHT22;24606;51.992;4.198;2022-10-16T05:19:58;17.80;92.50
38854;DHT22;24606;51.992;4.198;2022-10-16T05:25:00;17.80;92.50
38854;DHT22;24606;51.992;4.198;2022-10-16T05:30:05;17.60;92.40
38854;DHT22;24606;51.992;4.198;2022-10-16T05:35:07;17.60;92.40
38854;DHT22;24606;51.992;4.198;2022-10-16T05:40:09;18.60;90.10
38854;DHT22;24606;51.992;4.198;2022-10-16T05:45:13;18.10;91.60
38854;DHT22;24606;51.992;4.198;2022-10-16T05:50:15;17.70;92.20
38854;DHT22;24606;51.992;4.198;2022-10-16T05:55:17;17.80;92.20
38854;DHT22;24606;51.992;4.198;2022-10-16T06:00:20;17.40;93.00
38854;DHT22;24606;51.992;4.198;2022-10-16T06:05:22;17.30;93.30
38854;DHT22;24606;51.992;4.198;2022-10-16T06:10:24;17.10;93.50
38854;DHT22;24606;51.992;4.198;2022-10-16T06:15:27;16.60;95.00
38854;DHT22;24606;51.992;4.198;2022-10-16T06:20:29;16.50;95.50
38854;DHT22;24606;51.992;4.198;2022-10-16T06:25:31;15.80;96.50
38854;DHT22;24606;51.992;4.198;2022-10-16T06:30:34;15.60;97.50
38854;DHT22;24606;51.992;4.198;2022-10-16T06:35:36;15.70;97.70
38854;DHT22;24606;51.992;4.198;2022-10-16T06:40:38;16.30;96.00
38854;DHT22;24606;51.992;4.198;2022-10-16T06:45:41;16.10;96.80
38854;DHT22;24606;51.992;4.198;2022-10-16T06:50:43;16.70;95.00
38854;DHT22;24606;51.992;4.198;2022-10-16T06:55:45;16.00;97.00
38854;DHT22;24606;51.992;4.198;2022-10-16T07:00:48;16.80;94.70
38854;DHT22;24606;51.992;4.198;2022-10-16T07:05:50;16.80;94.80
38854;DHT22;24606;51.992;4.198;2022-10-16T07:10:58;16.30;96.30
38854;DHT22;24606;51.992;4.198;2022-10-16T07:16:05;16.00;96.90
38854;DHT22;24606;51.992;4.198;2022-10-16T07:21:09;16.90;96.10
38854;DHT22;24606;51.992;4.198;2022-10-16T07:26:12;17.00;95.20
38854;DHT22;24606;51.992;4.198;2022-10-16T07:31:17;17.10;93.70
38854;DHT22;24606;51.992;4.198;2022-10-16T07:36:20;17.20;93.40
38854;DHT22;24606;51.992;4.198;2022-10-16T07:41:22;17.10;93.50
38854;DHT22;24606;51.992;4.198;2022-10-16T07:46:26;16.70;95.50
38854;DHT22;24606;51.992;4.198;2022-10-16T07:51:28;16.80;95.30
38854;DHT22;24606;51.992;4.198;2022-10-16T07:56:30;16.10;96.50
38854;DHT22;24606;51.992;4.198;2022-10-16T08:01:34;17.00;93.80
38854;DHT22;24606;51.992;4.198;2022-10-16T08:06:36;17.00;93.90
38854;DHT22;24606;51.992;4.198;2022-10-16T08:11:38;16.60;96.40
38854;DHT22;24606;51.992;4.198;2022-10-16T08:16:42;17.00;94.60
38854;DHT22;24606;51.992;4.198;2022-10-16T08:21:47;16.60;96.50
38854;DHT22;24606;51.992;4.198;2022-10-16T08:26:49;16.50;96.30
38854;DHT22;24606;51.992;4.198;2022-10-16T08:31:52;17.20;93.60
38854;DHT22;24606;51.992;4.198;2022-10-16T08:36:53;17.00;95.20
38854;DHT22;24606;51.992;4.198;2022-10-16T08:42:19;16.90;95.40
38854;DHT22;24606;51.992;4.198;2022-10-16T08:47:43;17.80;93.10
38854;DHT22;24606;51.992;4.198;2022-10-16T08:52:46;16.80;96.80
38854;DHT22;24606;51.992;4.198;2022-10-16T08:57:49;16.00;99.40
38854;DHT22;24606;51.992;4.198;2022-10-16T09:02:58;16.00;99.20
38854;DHT22;24606;51.992;4.198;2022-10-16T09:08:06;15.90;98.70
38854;DHT22;24606;51.992;4.198;2022-10-16T09:13:17;16.10;98.70
38854;DHT22;24606;51.992;4.198;2022-10-16T09:18:26;16.10;99.10
38854;DHT22;24606;51.992;4.198;2022-10-16T09:23:33;16.80;97.20
38854;DHT22;24606;51.992;4.198;2022-10-16T09:28:36;18.30;92.50
38854;DHT22;24606;51.992;4.198;2022-10-16T09:33:40;16.80;96.70
38854;DHT22;24606;51.992;4.198;2022-10-16T09:38:43;16.90;97.20
38854;DHT22;24606;51.992;4.198;2022-10-16T09:43:52;16.80;96.60
38854;DHT22;24606;51.992;4.198;2022-10-16T09:48:58;16.30;97.30
38854;DHT22;24606;51.992;4.198;2022-10-16T09:54:02;17.40;95.30
38854;DHT22;24606;51.992;4.198;2022-10-16T09:59:16;16.80;94.90
38854;DHT22;24606;51.992;4.198;2022-10-16T10:04:20;16.80;95.20
38854;DHT22;24606;51.992;4.198;2022-10-16T10:09:24;17.50;92.50
38854;DHT22;24606;51.992;4.198;2022-10-16T10:14:29;17.00;93.00
38854;DHT22;24606;51.992;4.198;2022-10-16T10:19:40;16.80;94.70
38854;DHT22;24606;51.992;4.198;2022-10-16T10:24:42;17.30;91.20
38854;DHT22;24606;51.992;4.198;2022-10-16T10:29:53;17.40;92.00
38854;DHT22;24606;51.992;4.198;2022-10-16T10:35:11;16.90;93.40
38854;DHT22;24606;51.992;4.198;2022-10-16T10:40:23;17.50;94.20
38854;DHT22;24606;51.992;4.198;2022-10-16T10:45:37;17.40;93.20
38854;DHT22;24606;51.992;4.198;2022-10-16T10:50:44;17.10;91.30
38854;DHT22;24606;51.992;4.198;2022-10-16T10:55:57;16.90;92.50
38854;DHT22;24606;51.992;4.198;2022-10-16T11:01:04;17.40;87.80
38854;DHT22;24606;51.992;4.198;2022-10-16T11:06:12;17.10;94.50
38854;DHT22;24606;51.992;4.198;2022-10-16T11:11:20;17.20;94.10
38854;DHT22;24606;51.992;4.198;2022-10-16T11:16:28;17.70;93.10
38854;DHT22;24606;51.992;4.198;2022-10-16T11:21:38;17.80;87.40
38854;DHT22;24606;51.992;4.198;2022-10-16T11:26:42;17.20;80.60
38854;DHT22;24606;51.992;4.198;2022-10-16T11:31:50;17.40;88.80
38854;DHT22;24606;51.992;4.198;2022-10-16T11:36:58;17.30;72.30
38854;DHT22;24606;51.992;4.198;2022-10-16T11:42:07;17.80;92.00
38854;DHT22;24606;51.992;4.198;2022-10-16T11:47:22;17.60;81.10
38854;DHT22;24606;51.992;4.198;2022-10-16T11:52:33;17.30;71.20
38854;DHT22;24606;51.992;4.198;2022-10-16T11:57:41;17.30;76.00
38854;DHT22;24606;51.992;4.198;2022-10-16T12:02:54;18.10;88.60
38854;DHT22;24606;51.992;4.198;2022-10-16T12:08:05;17.90;83.40
38854;DHT22;24606;51.992;4.198;2022-10-16T12:13:32;18.20;73.20
38854;DHT22;24606;51.992;4.198;2022-10-16T12:18:35;18.30;77.50
38854;DHT22;24606;51.992;4.198;2022-10-16T12:23:46;18.30;79.70
38854;DHT22;24606;51.992;4.198;2022-10-16T12:28:49;18.20;70.30
38854;DHT22;24606;51.992;4.198;2022-10-16T12:33:58;18.30;90.90
38854;DHT22;24606;51.992;4.198;2022-10-16T12:39:02;18.60;74.80
38854;DHT22;24606;51.992;4.198;2022-10-16T12:44:04;18.50;69.70
38854;DHT22;24606;51.992;4.198;2022-10-16T12:49:21;19.20;86.70
38854;DHT22;24606;51.992;4.198;2022-10-16T12:54:28;19.10;84.70
38854;DHT22;24606;51.992;4.198;2022-10-16T12:59:38;19.20;86.50
38854;DHT22;24606;51.992;4.198;2022-10-16T13:04:50;19.30;83.20
38854;DHT22;24606;51.992;4.198;2022-10-16T13:10:05;19.70;74.80
38854;DHT22;24606;51.992;4.198;2022-10-16T13:15:22;19.70;78.20
38854;DHT22;24606;51.992;4.198;2022-10-16T13:20:31;19.80;80.80
38854;DHT22;24606;51.992;4.198;2022-10-16T13:25:46;19.70;83.10
38854;DHT22;24606;51.992;4.198;2022-10-16T13:30:52;19.70;80.30
38854;DHT22;24606;51.992;4.198;2022-10-16T13:35:56;20.20;84.30
38854;DHT22;24606;51.992;4.198;2022-10-16T13:41:01;20.50;85.60
38854;DHT22;24606;51.992;4.198;2022-10-16T13:46:05;20.90;82.10
38854;DHT22;24606;51.992;4.198;2022-10-16T13:51:12;20.90;72.70
38854;DHT22;24606;51.992;4.198;2022-10-16T13:56:18;20.70;72.10
38854;DHT22;24606;51.992;4.198;2022-10-16T14:01:24;21.30;81.10
38854;DHT22;24606;51.992;4.198;2022-10-16T14:06:26;21.20;80.00
38854;DHT22;24606;51.992;4.198;2022-10-16T14:11:29;21.20;79.80
38854;DHT22;24606;51.992;4.198;2022-10-16T14:16:32;21.50;78.70
38854;DHT22;24606;51.992;4.198;2022-10-16T14:21:34;21.50;78.30
38854;DHT22;24606;51.992;4.198;2022-10-16T14:26:41;21.40;78.50
38854;DHT22;24606;51.992;4.198;2022-10-16T14:31:54;21.70;77.90
38854;DHT22;24606;51.992;4.198;2022-10-16T14:36:58;21.80;77.60
38854;DHT22;24606;51.992;4.198;2022-10-16T14:42:02;21.80;77.40
38854;DHT22;24606;51.992;4.198;2022-10-16T14:47:09;21.80;77.50
38854;DHT22;24606;51.992;4.198;2022-10-16T14:52:13;21.80;77.30
38854;DHT22;24606;51.992;4.198;2022-10-16T14:57:18;21.90;77.20
38854;DHT22;24606;51.992;4.198;2022-10-16T15:02:25;21.90;77.00
38854;DHT22;24606;51.992;4.198;2022-10-16T15:07:28;21.90;77.00
38854;DHT22;24606;51.992;4.198;2022-10-16T15:12:32;22.20;77.20
38854;DHT22;24606;51.992;4.198;2022-10-16T15:17:33;22.00;77.00
38854;DHT22;24606;51.992;4.198;2022-10-16T15:22:35;21.90;76.90
38854;DHT22;24606;51.992;4.198;2022-10-16T15:27:38;22.00;76.60
38854;DHT22;24606;51.992;4.198;2022-10-16T15:32:40;22.00;76.50
38854;DHT22;24606;51.992;4.198;2022-10-16T15:37:42;22.00;76.50
38854;DHT22;24606;51.992;4.198;2022-10-16T15:42:46;22.00;76.50
38854;DHT22;24606;51.992;4.198;2022-10-16T15:47:49;22.10;76.30
38854;DHT22;24606;51.992;4.198;2022-10-16T15:52:51;22.00;76.30
38854;DHT22;24606;51.992;4.198;2022-10-16T15:57:54;22.00;76.10
38854;DHT22;24606;51.992;4.198;2022-10-16T16:02:55;22.00;76.20
38854;DHT22;24606;51.992;4.198;2022-10-16T16:07:57;22.00;76.20
38854;DHT22;24606;51.992;4.198;2022-10-16T16:13:01;22.00;76.20
38854;DHT22;24606;51.992;4.198;2022-10-16T16:18:03;22.00;76.20
38854;DHT22;24606;51.992;4.198;2022-10-16T16:23:06;22.00;76.60
38854;DHT22;24606;51.992;4.198;2022-10-16T16:28:09;22.00;76.50
38854;DHT22;24606;51.992;4.198;2022-10-16T16:33:14;22.00;76.60
38854;DHT22;24606;51.992;4.198;2022-10-16T16:38:16;22.10;76.80
38854;DHT22;24606;51.992;4.198;2022-10-16T16:43:22;22.10;77.20
38854;DHT22;24606;51.992;4.198;2022-10-16T16:48:24;22.10;77.20
38854;DHT22;24606;51.992;4.198;2022-10-16T16:53:26;22.10;77.40
38854;DHT22;24606;51.992;4.198;2022-10-16T16:58:30;22.00;77.50
38854;DHT22;24606;51.992;4.198;2022-10-16T17:03:34;22.00;77.60
38854;DHT22;24606;51.992;4.198;2022-10-16T17:08:36;22.10;77.60
38854;DHT22;24606;51.992;4.198;2022-10-16T17:13:40;23.40;78.40
38854;DHT22;24606;51.992;4.198;2022-10-16T17:18:42;22.00;77.60
38854;DHT22;24606;51.992;4.198;2022-10-16T17:23:44;21.90;77.70
38854;DHT22;24606;51.992;4.198;2022-10-16T17:28:49;21.90;78.00
38854;DHT22;24606;51.992;4.198;2022-10-16T17:33:51;21.90;78.30
38854;DHT22;24606;51.992;4.198;2022-10-16T17:38:54;21.90;78.40
38854;DHT22;24606;51.992;4.198;2022-10-16T17:44:02;21.90;78.60
38854;DHT22;24606;51.992;4.198;2022-10-16T17:49:04;22.00;80.40
38854;DHT22;24606;51.992;4.198;2022-10-16T17:54:06;22.50;77.10
38854;DHT22;24606;51.992;4.198;2022-10-16T17:59:10;22.80;75.20
38854;DHT22;24606;51.992;4.198;2022-10-16T18:04:15;22.90;75.20
38854;DHT22;24606;51.992;4.198;2022-10-16T18:09:18;22.90;74.30
38854;DHT22;24606;51.992;4.198;2022-10-16T18:14:21;22.60;75.80
38854;DHT22;24606;51.992;4.198;2022-10-16T18:19:24;22.40;76.80
38854;DHT22;24606;51.992;4.198;2022-10-16T18:24:26;22.30;77.60
38854;DHT22;24606;51.992;4.198;2022-10-16T18:29:29;22.20;78.30
38854;DHT22;24606;51.992;4.198;2022-10-16T18:34:32;22.10;79.20
38854;DHT22;24606;51.992;4.198;2022-10-16T18:39:37;22.10;79.90
38854;DHT22;24606;51.992;4.198;2022-10-16T18:44:40;22.00;80.40
38854;DHT22;24606;51.992;4.198;2022-10-16T18:49:42;22.00;80.50
38854;DHT22;24606;51.992;4.198;2022-10-16T18:54:46;22.00;81.00
38854;DHT22;24606;51.992;4.198;2022-10-16T18:59:49;22.00;81.30
38854;DHT22;24606;51.992;4.198;2022-10-16T19:04:51;21.90;81.80
38854;DHT22;24606;51.992;4.198;2022-10-16T19:09:53;21.90;82.10
38854;DHT22;24606;51.992;4.198;2022-10-16T19:14:56;22.00;82.30
38854;DHT22;24606;51.992;4.198;2022-10-16T19:19:58;21.90;82.30
38854;DHT22;24606;51.992;4.198;2022-10-16T19:24:59;22.10;82.10
38854;DHT22;24606;51.992;4.198;2022-10-16T19:30:03;21.80;81.50
38854;DHT22;24606;51.992;4.198;2022-10-16T19:35:06;21.90;81.50
38854;DHT22;24606;51.992;4.198;2022-10-16T19:40:09;21.90;81.30
38854;DHT22;24606;51.992;4.198;2022-10-16T19:45:13;22.00;81.10
38854;DHT22;24606;51.992;4.198;2022-10-16T19:50:14;21.90;81.00
38854;DHT22;24606;51.992;4.198;2022-10-16T19:55:18;21.90;81.00
38854;DHT22;24606;51.992;4.198;2022-10-16T20:00:21;21.80;80.90
38854;DHT22;24606;51.992;4.198;2022-10-16T20:05:23;21.90;80.90
38854;DHT22;24606;51.992;4.198;2022-10-16T20:10:25;21.90;80.70
38854;DHT22;24606;51.992;4.198;2022-10-16T20:15:28;21.90;80.70
38854;DHT22;24606;51.992;4.198;2022-10-16T20:20:30;21.80;80.70
38854;DHT22;24606;51.992;4.198;2022-10-16T20:25:34;21.80;80.60
38854;DHT22;24606;51.992;4.198;2022-10-16T20:30:39;21.80;80.60
38854;DHT22;24606;51.992;4.198;2022-10-16T20:35:43;21.90;80.40
38854;DHT22;24606;51.992;4.198;2022-10-16T20:40:46;21.80;80.40
38854;DHT22;24606;51.992;4.198;2022-10-16T20:45:58;21.80;80.50
38854;DHT22;24606;51.992;4.198;2022-10-16T20:51:09;21.80;80.50
38854;DHT22;24606;51.992;4.198;2022-10-16T20:56:11;21.80;80.40
38854;DHT22;24606;51.992;4.198;2022-10-16T21:01:18;21.80;80.30
38854;DHT22;24606;51.992;4.198;2022-10-16T21:06:21;21.80;80.40
38854;DHT22;24606;51.992;4.198;2022-10-16T21:11:25;21.70;80.30
38854;DHT22;24606;51.992;4.198;2022-10-16T21:16:29;21.70;80.40
38854;DHT22;24606;51.992;4.198;2022-10-16T21:21:32;21.70;80.40
38854;DHT22;24606;51.992;4.198;2022-10-16T21:26:34;21.70;80.30
38854;DHT22;24606;51.992;4.198;2022-10-16T21:31:38;21.70;80.30
38854;DHT22;24606;51.992;4.198;2022-10-16T21:36:41;21.70;80.90
38854;DHT22;24606;51.992;4.198;2022-10-16T21:41:45;21.60;80.50
38854;DHT22;24606;51.992;4.198;2022-10-16T21:46:49;21.70;80.60
38854;DHT22;24606;51.992;4.198;2022-10-16T21:51:51;21.70;80.60
38854;DHT22;24606;51.992;4.198;2022-10-16T21:56:53;21.70;80.40
38854;DHT22;24606;51.992;4.198;2022-10-16T22:01:56;21.70;80.30
38854;DHT22;24606;51.992;4.198;2022-10-16T22:07:00;21.60;80.30
38854;DHT22;24606;51.992;4.198;2022-10-16T22:12:01;21.60;80.30
38854;DHT22;24606;51.992;4.198;2022-10-16T22:17:05;21.60;80.30
38854;DHT22;24606;51.992;4.198;2022-10-16T22:22:06;21.50;80.10
38854;DHT22;24606;51.992;4.198;2022-10-16T22:27:08;20.90;79.90
38854;DHT22;24606;51.992;4.198;2022-10-16T22:32:11;21.60;80.10
38854;DHT22;24606;51.992;4.198;2022-10-16T22:37:13;21.80;80.20
38854;DHT22;24606;51.992;4.198;2022-10-16T22:42:15;21.50;80.10
38854;DHT22;24606;51.992;4.198;2022-10-16T22:47:18;22.20;80.60
38854;DHT22;24606;51.992;4.198;2022-10-16T22:52:20;21.50;80.10
38854;DHT22;24606;51.992;4.198;2022-10-16T22:57:22;21.50;80.20
38854;DHT22;24606;51.992;4.198;2022-10-16T23:02:26;21.50;80.30
38854;DHT22;24606;51.992;4.198;2022-10-16T23:07:28;20.70;79.70
38854;DHT22;24606;51.992;4.198;2022-10-16T23:12:30;21.50;80.20
38854;DHT22;24606;51.992;4.198;2022-10-16T23:17:33;21.50;80.20
38854;DHT22;24606;51.992;4.198;2022-10-16T23:22:35;21.50;80.20
38854;DHT22;24606;51.992;4.198;2022-10-16T23:27:36;21.50;80.30
38854;DHT22;24606;51.992;4.198;2022-10-16T23:32:41;21.50;80.10
38854;DHT22;24606;51.992;4.198;2022-10-16T23:37:42;21.50;80.20
38854;DHT22;24606;51.992;4.198;2022-10-16T23:42:44;21.50;80.30
38854;DHT22;24606;51.992;4.198;2022-10-16T23:47:47;21.40;80.30
38854;DHT22;24606;51.992;4.198;2022-10-16T23:52:49;21.40;80.50
38854;DHT22;24606;51.992;4.198;2022-10-16T23:57:51;21.40;80.40
